sensor_id;sensor_type;location;lat;lon;timestamp;temperature;humidity
27823;DHT22;29019;47.630;8.262;2022-07-22T00:03:05;28.80;37.70
27823;DHT22;29019;47.630;8.262;2022-07-22T00:07:06;28.80;37.70
27823;DHT22;29019;47.630;8.262;2022-07-22T00:11:06;28.80;37.70
27823;DHT22;29019;47.630;8.262;2022-07-22T00:15:07;28.70;37.70
27823;DHT22;29019;47.630;8.262;2022-07-22T00:19:08;28.70;37.70
27823;DHT22;29019;47.630;8.262;2022-07-22T00:23:09;28.70;37.70
27823;DHT22;29019;47.630;8.262;2022-07-22T00:27:09;28.70;37.80
27823;DHT22;29019;47.630;8.262;2022-07-22T00:31:09;28.70;37.80
27823;DHT22;29019;47.630;8.262;2022-07-22T00:35:10;28.70;37.80
27823;DHT22;29019;47.630;8.262;2022-07-22T00:39:10;28.70;37.80
27823;DHT22;29019;47.630;8.262;2022-07-22T00:43:11;28.70;37.80
27823;DHT22;29019;47.630;8.262;2022-07-22T00:47:12;28.60;37.80
27823;DHT22;29019;47.630;8.262;2022-07-22T00:51:12;28.60;37.80
27823;DHT22;29019;47.630;8.262;2022-07-22T00:55:13;28.60;37.80
27823;DHT22;29019;47.630;8.262;2022-07-22T00:59:14;28.60;37.80
27823;DHT22;29019;47.630;8.262;2022-07-22T01:03:15;28.60;37.80
27823;DHT22;29019;47.630;8.262;2022-07-22T01:07:16;28.60;37.80
27823;DHT22;29019;47.630;8.262;2022-07-22T01:11:18;28.60;37.90
27823;DHT22;29019;47.630;8.262;2022-07-22T01:15:19;28.60;37.90
27823;DHT22;29019;47.630;8.262;2022-07-22T01:19:19;28.50;37.80
27823;DHT22;29019;47.630;8.262;2022-07-22T01:23:19;28.60;37.90
27823;DHT22;29019;47.630;8.262;2022-07-22T01:27:20;28.60;37.90
27823;DHT22;29019;47.630;8.262;2022-07-22T01:31:20;28.50;37.90
27823;DHT22;29019;47.630;8.262;2022-07-22T01:35:21;28.50;37.90
27823;DHT22;29019;47.630;8.262;2022-07-22T01:39:21;28.50;37.90
27823;DHT22;29019;47.630;8.262;2022-07-22T01:43:22;28.50;38.00
27823;DHT22;29019;47.630;8.262;2022-07-22T01:47:22;28.50;38.00
27823;DHT22;29019;47.630;8.262;2022-07-22T01:51:23;28.40;37.90
27823;DHT22;29019;47.630;8.262;2022-07-22T01:55:23;28.40;38.00
27823;DHT22;29019;47.630;8.262;2022-07-22T01:59:24;28.40;38.00
27823;DHT22;29019;47.630;8.262;2022-07-22T02:03:24;28.40;38.00
27823;DHT22;29019;47.630;8.262;2022-07-22T02:07:25;28.40;38.00
27823;DHT22;29019;47.630;8.262;2022-07-22T02:11:26;28.40;38.00
27823;DHT22;29019;47.630;8.262;2022-07-22T02:15:26;28.40;38.00
27823;DHT22;29019;47.630;8.262;2022-07-22T02:19:27;28.30;38.00
27823;DHT22;29019;47.630;8.262;2022-07-22T02:23:28;28.40;38.10
27823;DHT22;29019;47.630;8.262;2022-07-22T02:27:28;28.30;38.00
27823;DHT22;29019;47.630;8.262;2022-07-22T02:31:28;28.30;38.00
27823;DHT22;29019;47.630;8.262;2022-07-22T02:35:29;28.30;38.00
27823;DHT22;29019;47.630;8.262;2022-07-22T02:39:29;28.30;38.10
27823;DHT22;29019;47.630;8.262;2022-07-22T02:43:30;28.30;38.10
27823;DHT22;29019;47.630;8.262;2022-07-22T02:47:30;28.30;38.10
27823;DHT22;29019;47.630;8.262;2022-07-22T02:51:31;28.30;38.10
27823;DHT22;29019;47.630;8.262;2022-07-22T02:55:31;28.30;38.10
27823;DHT22;29019;47.630;8.262;2022-07-22T02:59:32;28.20;38.00
27823;DHT22;29019;47.630;8.262;2022-07-22T03:03:32;28.20;38.10
27823;DHT22;29019;47.630;8.262;2022-07-22T03:07:33;28.20;38.10
27823;DHT22;29019;47.630;8.262;2022-07-22T03:11:33;28.20;38.10
27823;DHT22;29019;47.630;8.262;2022-07-22T03:15:34;28.20;38.10
27823;DHT22;29019;47.630;8.262;2022-07-22T03:19:34;28.20;38.10
27823;DHT22;29019;47.630;8.262;2022-07-22T03:23:34;28.20;38.20
27823;DHT22;29019;47.630;8.262;2022-07-22T03:27:35;28.20;38.20
27823;DHT22;29019;47.630;8.262;2022-07-22T03:31:35;28.20;38.20
27823;DHT22;29019;47.630;8.262;2022-07-22T03:35:36;28.10;38.10
27823;DHT22;29019;47.630;8.262;2022-07-22T03:39:36;28.20;38.20
27823;DHT22;29019;47.630;8.262;2022-07-22T03:43:37;28.10;38.20
27823;DHT22;29019;47.630;8.262;2022-07-22T03:47:37;28.10;38.20
27823;DHT22;29019;47.630;8.262;2022-07-22T03:51:37;28.10;38.20
27823;DHT22;29019;47.630;8.262;2022-07-22T03:55:38;28.10;38.20
27823;DHT22;29019;47.630;8.262;2022-07-22T03:59:39;28.10;38.20
27823;DHT22;29019;47.630;8.262;2022-07-22T04:03:39;28.10;38.30
27823;DHT22;29019;47.630;8.262;2022-07-22T04:07:40;28.00;38.20
27823;DHT22;29019;47.630;8.262;2022-07-22T04:11:40;28.00;38.20
27823;DHT22;29019;47.630;8.262;2022-07-22T04:15:40;28.00;38.20
27823;DHT22;29019;47.630;8.262;2022-07-22T04:19:41;28.00;38.20
27823;DHT22;29019;47.630;8.262;2022-07-22T04:23:41;28.00;38.20
27823;DHT22;29019;47.630;8.262;2022-07-22T04:27:42;28.00;38.20
27823;DHT22;29019;47.630;8.262;2022-07-22T04:31:42;28.00;38.20
27823;DHT22;29019;47.630;8.262;2022-07-22T04:35:42;28.00;38.20
27823;DHT22;29019;47.630;8.262;2022-07-22T04:39:43;28.00;38.30
27823;DHT22;29019;47.630;8.262;2022-07-22T04:43:44;28.00;38.20
27823;DHT22;29019;47.630;8.262;2022-07-22T04:47:44;27.90;38.20
27823;DHT22;29019;47.630;8.262;2022-07-22T04:51:45;28.00;38.80
27823;DHT22;29019;47.630;8.262;2022-07-22T04:55:45;27.90;38.30
27823;DHT22;29019;47.630;8.262;2022-07-22T04:59:45;27.90;38.20
27823;DHT22;29019;47.630;8.262;2022-07-22T05:03:46;27.90;38.30
27823;DHT22;29019;47.630;8.262;2022-07-22T05:07:46;27.90;38.30
27823;DHT22;29019;47.630;8.262;2022-07-22T05:11:47;27.90;38.30
27823;DHT22;29019;47.630;8.262;2022-07-22T05:15:47;27.90;38.30
27823;DHT22;29019;47.630;8.262;2022-07-22T05:19:48;27.90;38.30
27823;DHT22;29019;47.630;8.262;2022-07-22T05:23:49;27.90;38.30
27823;DHT22;29019;47.630;8.262;2022-07-22T05:27:53;27.90;38.30
27823;DHT22;29019;47.630;8.262;2022-07-22T05:31:53;27.90;38.30
27823;DHT22;29019;47.630;8.262;2022-07-22T05:35:54;27.90;38.30
27823;DHT22;29019;47.630;8.262;2022-07-22T05:39:54;27.90;38.20
27823;DHT22;29019;47.630;8.262;2022-07-22T05:43:55;27.90;38.20
27823;DHT22;29019;47.630;8.262;2022-07-22T05:47:55;27.90;38.20
27823;DHT22;29019;47.630;8.262;2022-07-22T05:51:56;27.90;38.10
27823;DHT22;29019;47.630;8.262;2022-07-22T05:56:00;27.90;38.10
27823;DHT22;29019;47.630;8.262;2022-07-22T06:00:00;27.90;38.20
27823;DHT22;29019;47.630;8.262;2022-07-22T06:04:01;27.90;38.20
27823;DHT22;29019;47.630;8.262;2022-07-22T06:08:02;27.90;38.20
27823;DHT22;29019;47.630;8.262;2022-07-22T06:12:02;27.90;38.20
27823;DHT22;29019;47.630;8.262;2022-07-22T06:16:03;27.80;38.20
27823;DHT22;29019;47.630;8.262;2022-07-22T06:20:04;27.90;38.30
27823;DHT22;29019;47.630;8.262;2022-07-22T06:24:04;27.90;38.30
27823;DHT22;29019;47.630;8.262;2022-07-22T06:28:05;27.80;38.30
27823;DHT22;29019;47.630;8.262;2022-07-22T06:32:05;27.80;38.30
27823;DHT22;29019;47.630;8.262;2022-07-22T06:36:06;27.80;38.30
27823;DHT22;29019;47.630;8.262;2022-07-22T06:40:06;27.90;38.40
27823;DHT22;29019;47.630;8.262;2022-07-22T06:44:07;27.80;38.30
27823;DHT22;29019;47.630;8.262;2022-07-22T06:48:08;27.80;38.30
27823;DHT22;29019;47.630;8.262;2022-07-22T06:52:08;27.90;38.30
27823;DHT22;29019;47.630;8.262;2022-07-22T06:56:08;27.90;38.30
27823;DHT22;29019;47.630;8.262;2022-07-22T07:00:09;27.80;38.30
27823;DHT22;29019;47.630;8.262;2022-07-22T07:04:10;27.80;38.30
27823;DHT22;29019;47.630;8.262;2022-07-22T07:08:10;27.80;38.30
27823;DHT22;29019;47.630;8.262;2022-07-22T07:12:10;27.80;38.30
27823;DHT22;29019;47.630;8.262;2022-07-22T07:16:11;27.80;38.30
27823;DHT22;29019;47.630;8.262;2022-07-22T07:20:11;27.80;38.30
27823;DHT22;29019;47.630;8.262;2022-07-22T07:24:12;27.80;38.30
27823;DHT22;29019;47.630;8.262;2022-07-22T07:28:12;27.80;38.30
27823;DHT22;29019;47.630;8.262;2022-07-22T07:32:13;27.80;38.30
27823;DHT22;29019;47.630;8.262;2022-07-22T07:36:13;27.80;38.30
27823;DHT22;29019;47.630;8.262;2022-07-22T07:40:14;27.80;38.30
27823;DHT22;29019;47.630;8.262;2022-07-22T07:44:14;27.80;38.30
27823;DHT22;29019;47.630;8.262;2022-07-22T07:48:15;27.80;38.30
27823;DHT22;29019;47.630;8.262;2022-07-22T07:52:16;27.80;38.30
27823;DHT22;29019;47.630;8.262;2022-07-22T07:56:17;27.80;38.30
27823;DHT22;29019;47.630;8.262;2022-07-22T08:00:18;27.80;38.30
27823;DHT22;29019;47.630;8.262;2022-07-22T08:04:20;27.90;38.30
27823;DHT22;29019;47.630;8.262;2022-07-22T08:08:20;27.80;38.30
27823;DHT22;29019;47.630;8.262;2022-07-22T08:12:21;27.90;38.30
27823;DHT22;29019;47.630;8.262;2022-07-22T08:16:21;27.90;38.30
27823;DHT22;29019;47.630;8.262;2022-07-22T08:20:22;27.90;38.30
27823;DHT22;29019;47.630;8.262;2022-07-22T08:24:23;27.90;38.30
27823;DHT22;29019;47.630;8.262;2022-07-22T08:28:23;27.90;38.30
27823;DHT22;29019;47.630;8.262;2022-07-22T08:32:24;27.90;38.30
27823;DHT22;29019;47.630;8.262;2022-07-22T08:36:24;27.90;38.20
27823;DHT22;29019;47.630;8.262;2022-07-22T08:40:25;28.00;38.30
27823;DHT22;29019;47.630;8.262;2022-07-22T08:44:28;28.00;38.30
27823;DHT22;29019;47.630;8.262;2022-07-22T08:48:29;28.00;38.30
27823;DHT22;29019;47.630;8.262;2022-07-22T08:52:30;28.00;38.30
27823;DHT22;29019;47.630;8.262;2022-07-22T08:56:30;28.00;38.30
27823;DHT22;29019;47.630;8.262;2022-07-22T09:00:31;28.00;38.30
27823;DHT22;29019;47.630;8.262;2022-07-22T09:04:31;28.00;38.30
27823;DHT22;29019;47.630;8.262;2022-07-22T09:08:32;28.10;38.90
27823;DHT22;29019;47.630;8.262;2022-07-22T09:12:50;28.10;38.30
27823;DHT22;29019;47.630;8.262;2022-07-22T09:16:51;28.10;38.30
27823;DHT22;29019;47.630;8.262;2022-07-22T09:20:51;28.10;38.30
27823;DHT22;29019;47.630;8.262;2022-07-22T09:24:58;28.10;38.30
27823;DHT22;29019;47.630;8.262;2022-07-22T09:28:59;28.10;38.30
27823;DHT22;29019;47.630;8.262;2022-07-22T09:32:59;28.20;38.30
27823;DHT22;29019;47.630;8.262;2022-07-22T09:37:00;28.20;38.30
27823;DHT22;29019;47.630;8.262;2022-07-22T09:41:00;28.20;38.30
27823;DHT22;29019;47.630;8.262;2022-07-22T09:45:02;28.20;38.30
27823;DHT22;29019;47.630;8.262;2022-07-22T09:49:02;28.20;38.20
27823;DHT22;29019;47.630;8.262;2022-07-22T09:53:03;28.30;38.30
27823;DHT22;29019;47.630;8.262;2022-07-22T09:57:04;28.30;38.30
27823;DHT22;29019;47.630;8.262;2022-07-22T10:01:04;28.30;38.30
27823;DHT22;29019;47.630;8.262;2022-07-22T10:05:06;28.30;38.20
27823;DHT22;29019;47.630;8.262;2022-07-22T10:09:07;28.30;38.20
27823;DHT22;29019;47.630;8.262;2022-07-22T10:13:08;28.40;38.20
27823;DHT22;29019;47.630;8.262;2022-07-22T10:17:08;28.40;38.20
27823;DHT22;29019;47.630;8.262;2022-07-22T10:21:09;28.40;38.20
27823;DHT22;29019;47.630;8.262;2022-07-22T10:25:11;28.40;38.20
27823;DHT22;29019;47.630;8.262;2022-07-22T10:29:25;28.40;38.10
27823;DHT22;29019;47.630;8.262;2022-07-22T10:33:29;28.40;38.10
27823;DHT22;29019;47.630;8.262;2022-07-22T10:41:34;28.50;38.20
27823;DHT22;29019;47.630;8.262;2022-07-22T10:45:38;28.50;38.20
27823;DHT22;29019;47.630;8.262;2022-07-22T10:49:39;28.50;38.20
27823;DHT22;29019;47.630;8.262;2022-07-22T10:57:53;28.60;38.20
27823;DHT22;29019;47.630;8.262;2022-07-22T11:01:53;28.60;38.10
27823;DHT22;29019;47.630;8.262;2022-07-22T11:06:14;28.60;38.20
27823;DHT22;29019;47.630;8.262;2022-07-22T11:10:15;28.60;38.10
27823;DHT22;29019;47.630;8.262;2022-07-22T11:14:18;28.60;38.10
27823;DHT22;29019;47.630;8.262;2022-07-22T11:18:18;28.70;38.20
27823;DHT22;29019;47.630;8.262;2022-07-22T11:22:19;28.70;38.10
27823;DHT22;29019;47.630;8.262;2022-07-22T11:26:23;28.70;38.10
27823;DHT22;29019;47.630;8.262;2022-07-22T11:30:25;28.70;38.10
27823;DHT22;29019;47.630;8.262;2022-07-22T11:34:25;28.70;38.10
27823;DHT22;29019;47.630;8.262;2022-07-22T11:38:38;28.70;38.00
27823;DHT22;29019;47.630;8.262;2022-07-22T11:42:39;28.80;38.10
27823;DHT22;29019;47.630;8.262;2022-07-22T11:46:40;28.80;38.00
27823;DHT22;29019;47.630;8.262;2022-07-22T11:50:41;28.80;38.00
27823;DHT22;29019;47.630;8.262;2022-07-22T11:54:43;28.80;38.50
27823;DHT22;29019;47.630;8.262;2022-07-22T11:58:45;28.90;38.00
27823;DHT22;29019;47.630;8.262;2022-07-22T12:02:46;28.90;38.00
27823;DHT22;29019;47.630;8.262;2022-07-22T12:06:46;28.90;38.00
27823;DHT22;29019;47.630;8.262;2022-07-22T12:10:47;28.90;38.00
27823;DHT22;29019;47.630;8.262;2022-07-22T12:14:48;28.90;38.00
27823;DHT22;29019;47.630;8.262;2022-07-22T12:18:52;28.90;37.90
27823;DHT22;29019;47.630;8.262;2022-07-22T12:22:53;29.00;37.90
27823;DHT22;29019;47.630;8.262;2022-07-22T12:26:54;29.00;37.90
27823;DHT22;29019;47.630;8.262;2022-07-22T12:30:55;29.10;37.90
27823;DHT22;29019;47.630;8.262;2022-07-22T12:34:59;29.10;37.90
27823;DHT22;29019;47.630;8.262;2022-07-22T12:39:13;29.10;37.90
27823;DHT22;29019;47.630;8.262;2022-07-22T12:43:13;29.10;37.80
27823;DHT22;29019;47.630;8.262;2022-07-22T12:47:14;29.20;37.90
27823;DHT22;29019;47.630;8.262;2022-07-22T12:51:14;29.20;37.90
27823;DHT22;29019;47.630;8.262;2022-07-22T12:55:15;29.20;37.80
27823;DHT22;29019;47.630;8.262;2022-07-22T12:59:15;29.20;37.80
27823;DHT22;29019;47.630;8.262;2022-07-22T13:03:16;29.20;37.80
27823;DHT22;29019;47.630;8.262;2022-07-22T13:07:19;29.30;38.30
27823;DHT22;29019;47.630;8.262;2022-07-22T13:11:19;29.20;37.70
27823;DHT22;29019;47.630;8.262;2022-07-22T13:15:20;29.30;37.70
27823;DHT22;29019;47.630;8.262;2022-07-22T13:19:21;29.30;37.70
27823;DHT22;29019;47.630;8.262;2022-07-22T13:23:21;29.30;37.70
27823;DHT22;29019;47.630;8.262;2022-07-22T13:27:23;29.30;37.70
27823;DHT22;29019;47.630;8.262;2022-07-22T13:31:23;29.30;37.70
27823;DHT22;29019;47.630;8.262;2022-07-22T13:35:24;29.40;37.70
27823;DHT22;29019;47.630;8.262;2022-07-22T13:39:25;29.40;37.70
27823;DHT22;29019;47.630;8.262;2022-07-22T13:43:25;29.40;37.70
27823;DHT22;29019;47.630;8.262;2022-07-22T13:47:26;29.40;37.70
27823;DHT22;29019;47.630;8.262;2022-07-22T13:51:27;29.40;37.70
27823;DHT22;29019;47.630;8.262;2022-07-22T13:55:27;29.40;38.20
27823;DHT22;29019;47.630;8.262;2022-07-22T13:59:28;29.40;37.60
27823;DHT22;29019;47.630;8.262;2022-07-22T14:03:29;29.50;37.70
27823;DHT22;29019;47.630;8.262;2022-07-22T14:07:30;29.50;37.70
27823;DHT22;29019;47.630;8.262;2022-07-22T14:11:30;29.50;37.70
27823;DHT22;29019;47.630;8.262;2022-07-22T14:15:31;29.50;37.70
27823;DHT22;29019;47.630;8.262;2022-07-22T14:19:31;29.50;37.60
27823;DHT22;29019;47.630;8.262;2022-07-22T14:23:31;29.50;37.60
27823;DHT22;29019;47.630;8.262;2022-07-22T14:27:32;29.50;37.60
27823;DHT22;29019;47.630;8.262;2022-07-22T14:31:32;29.50;37.60
27823;DHT22;29019;47.630;8.262;2022-07-22T14:35:33;29.50;37.60
27823;DHT22;29019;47.630;8.262;2022-07-22T14:39:34;29.50;37.60
27823;DHT22;29019;47.630;8.262;2022-07-22T14:43:35;29.60;37.70
27823;DHT22;29019;47.630;8.262;2022-07-22T14:47:36;29.60;37.70
27823;DHT22;29019;47.630;8.262;2022-07-22T14:51:36;29.60;37.60
27823;DHT22;29019;47.630;8.262;2022-07-22T14:55:37;29.60;37.60
27823;DHT22;29019;47.630;8.262;2022-07-22T14:59:37;29.60;37.60
27823;DHT22;29019;47.630;8.262;2022-07-22T15:03:38;29.60;37.70
27823;DHT22;29019;47.630;8.262;2022-07-22T15:07:39;29.60;37.60
27823;DHT22;29019;47.630;8.262;2022-07-22T15:11:40;29.70;37.70
27823;DHT22;29019;47.630;8.262;2022-07-22T15:15:41;29.60;37.60
27823;DHT22;29019;47.630;8.262;2022-07-22T15:19:42;29.70;37.60
27823;DHT22;29019;47.630;8.262;2022-07-22T15:23:43;29.60;37.50
27823;DHT22;29019;47.630;8.262;2022-07-22T15:27:43;29.70;37.30
27823;DHT22;29019;47.630;8.262;2022-07-22T15:31:44;29.70;36.80
27823;DHT22;29019;47.630;8.262;2022-07-22T15:35:47;29.70;37.20
27823;DHT22;29019;47.630;8.262;2022-07-22T15:39:48;29.70;37.30
27823;DHT22;29019;47.630;8.262;2022-07-22T15:43:48;29.70;37.10
27823;DHT22;29019;47.630;8.262;2022-07-22T15:47:49;29.70;37.20
27823;DHT22;29019;47.630;8.262;2022-07-22T15:51:49;29.70;36.90
27823;DHT22;29019;47.630;8.262;2022-07-22T15:55:50;29.80;37.30
27823;DHT22;29019;47.630;8.262;2022-07-22T15:59:50;29.70;37.10
27823;DHT22;29019;47.630;8.262;2022-07-22T16:03:51;29.70;37.00
27823;DHT22;29019;47.630;8.262;2022-07-22T16:07:51;29.80;37.00
27823;DHT22;29019;47.630;8.262;2022-07-22T16:11:52;29.70;37.00
27823;DHT22;29019;47.630;8.262;2022-07-22T16:15:52;29.80;37.10
27823;DHT22;29019;47.630;8.262;2022-07-22T16:19:52;29.80;37.10
27823;DHT22;29019;47.630;8.262;2022-07-22T16:23:53;29.80;36.90
27823;DHT22;29019;47.630;8.262;2022-07-22T16:27:54;29.70;36.90
27823;DHT22;29019;47.630;8.262;2022-07-22T16:31:54;29.80;37.00
27823;DHT22;29019;47.630;8.262;2022-07-22T16:35:54;29.80;36.90
27823;DHT22;29019;47.630;8.262;2022-07-22T16:39:55;29.80;37.00
27823;DHT22;29019;47.630;8.262;2022-07-22T16:43:55;29.80;36.90
27823;DHT22;29019;47.630;8.262;2022-07-22T16:47:56;29.80;37.00
27823;DHT22;29019;47.630;8.262;2022-07-22T16:51:56;29.80;37.00
27823;DHT22;29019;47.630;8.262;2022-07-22T16:55:57;29.80;37.00
27823;DHT22;29019;47.630;8.262;2022-07-22T16:59:57;29.80;36.90
27823;DHT22;29019;47.630;8.262;2022-07-22T17:03:58;29.80;37.00
27823;DHT22;29019;47.630;8.262;2022-07-22T17:07:58;29.80;37.10
27823;DHT22;29019;47.630;8.262;2022-07-22T17:11:59;29.80;37.00
27823;DHT22;29019;47.630;8.262;2022-07-22T17:16:03;29.80;37.10
27823;DHT22;29019;47.630;8.262;2022-07-22T17:20:03;29.80;37.10
27823;DHT22;29019;47.630;8.262;2022-07-22T17:24:04;29.80;37.00
27823;DHT22;29019;47.630;8.262;2022-07-22T17:28:04;29.80;37.20
27823;DHT22;29019;47.630;8.262;2022-07-22T17:32:05;29.70;37.10
27823;DHT22;29019;47.630;8.262;2022-07-22T17:36:06;29.70;37.30
27823;DHT22;29019;47.630;8.262;2022-07-22T17:40:08;29.70;37.20
27823;DHT22;29019;47.630;8.262;2022-07-22T17:44:09;29.80;37.30
27823;DHT22;29019;47.630;8.262;2022-07-22T17:48:11;29.70;37.20
27823;DHT22;29019;47.630;8.262;2022-07-22T17:52:12;29.70;37.30
27823;DHT22;29019;47.630;8.262;2022-07-22T17:56:13;29.80;37.30
27823;DHT22;29019;47.630;8.262;2022-07-22T18:00:13;29.70;37.20
27823;DHT22;29019;47.630;8.262;2022-07-22T18:04:14;29.80;37.30
27823;DHT22;29019;47.630;8.262;2022-07-22T18:08:15;29.70;37.30
27823;DHT22;29019;47.630;8.262;2022-07-22T18:12:15;29.70;37.30
27823;DHT22;29019;47.630;8.262;2022-07-22T18:16:16;29.70;37.30
27823;DHT22;29019;47.630;8.262;2022-07-22T18:20:16;29.70;37.20
27823;DHT22;29019;47.630;8.262;2022-07-22T18:24:17;29.70;37.20
27823;DHT22;29019;47.630;8.262;2022-07-22T18:28:18;29.70;37.30
27823;DHT22;29019;47.630;8.262;2022-07-22T18:32:19;29.70;37.30
27823;DHT22;29019;47.630;8.262;2022-07-22T18:36:20;29.70;37.20
27823;DHT22;29019;47.630;8.262;2022-07-22T18:40:20;29.70;37.30
27823;DHT22;29019;47.630;8.262;2022-07-22T18:44:20;29.70;37.30
27823;DHT22;29019;47.630;8.262;2022-07-22T18:48:21;29.70;37.20
27823;DHT22;29019;47.630;8.262;2022-07-22T18:52:21;29.70;37.30
27823;DHT22;29019;47.630;8.262;2022-07-22T18:56:22;29.70;37.30
27823;DHT22;29019;47.630;8.262;2022-07-22T19:00:22;29.60;37.20
27823;DHT22;29019;47.630;8.262;2022-07-22T19:04:23;29.70;37.10
27823;DHT22;29019;47.630;8.262;2022-07-22T19:08:23;29.70;37.00
27823;DHT22;29019;47.630;8.262;2022-07-22T19:12:24;29.70;37.10
27823;DHT22;29019;47.630;8.262;2022-07-22T19:16:24;29.70;37.00
27823;DHT22;29019;47.630;8.262;2022-07-22T19:20:25;29.60;37.20
27823;DHT22;29019;47.630;8.262;2022-07-22T19:24:25;29.70;37.20
27823;DHT22;29019;47.630;8.262;2022-07-22T19:28:26;29.70;37.20
27823;DHT22;29019;47.630;8.262;2022-07-22T19:32:26;29.70;37.20
27823;DHT22;29019;47.630;8.262;2022-07-22T19:36:27;29.70;37.20
27823;DHT22;29019;47.630;8.262;2022-07-22T19:40:29;29.60;37.20
27823;DHT22;29019;47.630;8.262;2022-07-22T19:44:29;29.60;37.20
27823;DHT22;29019;47.630;8.262;2022-07-22T19:48:31;29.60;37.20
27823;DHT22;29019;47.630;8.262;2022-07-22T19:52:32;29.60;37.20
27823;DHT22;29019;47.630;8.262;2022-07-22T19:56:34;29.60;37.20
27823;DHT22;29019;47.630;8.262;2022-07-22T20:00:34;29.60;37.20
27823;DHT22;29019;47.630;8.262;2022-07-22T20:04:35;29.60;37.30
27823;DHT22;29019;47.630;8.262;2022-07-22T20:08:35;29.60;37.30
27823;DHT22;29019;47.630;8.262;2022-07-22T20:12:35;29.60;37.30
27823;DHT22;29019;47.630;8.262;2022-07-22T20:16:36;29.60;37.30
27823;DHT22;29019;47.630;8.262;2022-07-22T20:20:36;29.60;37.30
27823;DHT22;29019;47.630;8.262;2022-07-22T20:24:38;29.60;37.30
27823;DHT22;29019;47.630;8.262;2022-07-22T20:28:38;29.60;37.30
27823;DHT22;29019;47.630;8.262;2022-07-22T20:32:39;29.60;37.40
27823;DHT22;29019;47.630;8.262;2022-07-22T20:36:40;29.60;37.40
27823;DHT22;29019;47.630;8.262;2022-07-22T20:40:41;29.60;37.40
27823;DHT22;29019;47.630;8.262;2022-07-22T20:44:41;29.60;37.40
27823;DHT22;29019;47.630;8.262;2022-07-22T20:48:42;29.60;37.40
27823;DHT22;29019;47.630;8.262;2022-07-22T20:52:43;29.60;37.40
27823;DHT22;29019;47.630;8.262;2022-07-22T20:56:43;29.60;37.50
27823;DHT22;29019;47.630;8.262;2022-07-22T21:00:44;29.60;37.50
27823;DHT22;29019;47.630;8.262;2022-07-22T21:04:44;29.60;37.50
27823;DHT22;29019;47.630;8.262;2022-07-22T21:08:45;29.60;37.50
27823;DHT22;29019;47.630;8.262;2022-07-22T21:12:45;29.60;37.50
27823;DHT22;29019;47.630;8.262;2022-07-22T21:16:46;29.60;37.50
27823;DHT22;29019;47.630;8.262;2022-07-22T21:20:46;29.60;37.50
27823;DHT22;29019;47.630;8.262;2022-07-22T21:24:47;29.60;37.50
27823;DHT22;29019;47.630;8.262;2022-07-22T21:28:47;29.50;37.50
27823;DHT22;29019;47.630;8.262;2022-07-22T21:32:48;29.50;37.50
27823;DHT22;29019;47.630;8.262;2022-07-22T21:36:49;29.50;37.50
27823;DHT22;29019;47.630;8.262;2022-07-22T21:40:49;29.50;37.50
27823;DHT22;29019;47.630;8.262;2022-07-22T21:44:50;29.50;37.50
27823;DHT22;29019;47.630;8.262;2022-07-22T21:48:51;29.50;37.50
27823;DHT22;29019;47.630;8.262;2022-07-22T21:52:51;29.60;37.50
27823;DHT22;29019;47.630;8.262;2022-07-22T21:56:52;29.50;37.50
27823;DHT22;29019;47.630;8.262;2022-07-22T22:00:57;29.50;37.60
27823;DHT22;29019;47.630;8.262;2022-07-22T22:04:58;29.50;37.60
27823;DHT22;29019;47.630;8.262;2022-07-22T22:08:58;29.50;37.60
27823;DHT22;29019;47.630;8.262;2022-07-22T22:12:59;29.50;37.70
27823;DHT22;29019;47.630;8.262;2022-07-22T22:16:59;29.50;37.70
27823;DHT22;29019;47.630;8.262;2022-07-22T22:21:03;29.50;37.80
27823;DHT22;29019;47.630;8.262;2022-07-22T22:25:04;29.50;37.70
27823;DHT22;29019;47.630;8.262;2022-07-22T22:29:10;29.50;37.70
27823;DHT22;29019;47.630;8.262;2022-07-22T22:33:11;29.50;37.80
27823;DHT22;29019;47.630;8.262;2022-07-22T22:37:11;29.50;37.80
27823;DHT22;29019;47.630;8.262;2022-07-22T22:41:12;29.50;37.90
27823;DHT22;29019;47.630;8.262;2022-07-22T22:45:13;29.50;38.00
27823;DHT22;29019;47.630;8.262;2022-07-22T22:49:13;29.40;38.00
27823;DHT22;29019;47.630;8.262;2022-07-22T22:53:14;29.40;38.00
27823;DHT22;29019;47.630;8.262;2022-07-22T22:57:14;29.40;38.10
27823;DHT22;29019;47.630;8.262;2022-07-22T23:01:15;29.40;38.10
27823;DHT22;29019;47.630;8.262;2022-07-22T23:05:15;29.40;38.20
27823;DHT22;29019;47.630;8.262;2022-07-22T23:09:16;29.40;38.20
27823;DHT22;29019;47.630;8.262;2022-07-22T23:13:16;29.40;38.30
27823;DHT22;29019;47.630;8.262;2022-07-22T23:17:16;29.30;38.20
27823;DHT22;29019;47.630;8.262;2022-07-22T23:21:17;29.40;38.30
27823;DHT22;29019;47.630;8.262;2022-07-22T23:25:17;29.30;38.30
27823;DHT22;29019;47.630;8.262;2022-07-22T23:29:18;29.30;38.30
27823;DHT22;29019;47.630;8.262;2022-07-22T23:33:18;29.30;38.30
27823;DHT22;29019;47.630;8.262;2022-07-22T23:37:19;29.30;38.40
27823;DHT22;29019;47.630;8.262;2022-07-22T23:41:19;29.30;38.40
27823;DHT22;29019;47.630;8.262;2022-07-22T23:45:20;29.30;38.50
27823;DHT22;29019;47.630;8.262;2022-07-22T23:49:20;29.30;38.50
27823;DHT22;29019;47.630;8.262;2022-07-22T23:53:21;29.30;38.50
27823;DHT22;29019;47.630;8.262;2022-07-22T23:57:21;29.30;38.60
